sensor_id;sensor_type;location;lat;lon;timestamp;temperature;humidity
1355;DHT22;671;48.972;9.276;2023-09-19T00:02:03;18.90;99.90
1355;DHT22;671;48.972;9.276;2023-09-19T00:04:32;18.90;99.90
1355;DHT22;671;48.972;9.276;2023-09-19T00:06:58;18.90;99.90
1355;DHT22;671;48.972;9.276;2023-09-19T00:09:24;18.90;99.90
1355;DHT22;671;48.972;9.276;2023-09-19T00:11:53;19.00;99.90
1355;DHT22;671;48.972;9.276;2023-09-19T00:14:19;18.90;99.90
1355;DHT22;671;48.972;9.276;2023-09-19T00:16:46;18.90;99.90
1355;DHT22;671;48.972;9.276;2023-09-19T00:19:16;18.90;99.90
1355;DHT22;671;48.972;9.276;2023-09-19T00:21:42;18.90;99.90
1355;DHT22;671;48.972;9.276;2023-09-19T00:24:09;18.90;99.90
1355;DHT22;671;48.972;9.276;2023-09-19T00:26:36;18.80;99.90
1355;DHT22;671;48.972;9.276;2023-09-19T00:29:02;18.80;99.90
1355;DHT22;671;48.972;9.276;2023-09-19T00:31:29;18.70;99.90
1355;DHT22;671;48.972;9.276;2023-09-19T00:33:56;18.70;99.90
1355;DHT22;671;48.972;9.276;2023-09-19T00:36:30;18.70;99.90
1355;DHT22;671;48.972;9.276;2023-09-19T00:38:56;18.70;99.90
1355;DHT22;671;48.972;9.276;2023-09-19T00:41:23;18.70;99.90
1355;DHT22;671;48.972;9.276;2023-09-19T00:43:51;18.70;99.90
1355;DHT22;671;48.972;9.276;2023-09-19T00:46:17;18.70;99.90
1355;DHT22;671;48.972;9.276;2023-09-19T00:48:44;18.70;99.90
1355;DHT22;671;48.972;9.276;2023-09-19T00:51:11;18.70;99.90
1355;DHT22;671;48.972;9.276;2023-09-19T00:53:38;18.80;99.90
1355;DHT22;671;48.972;9.276;2023-09-19T00:56:06;18.80;99.90
1355;DHT22;671;48.972;9.276;2023-09-19T00:58:33;18.80;99.90
1355;DHT22;671;48.972;9.276;2023-09-19T01:01:02;18.80;99.90
1355;DHT22;671;48.972;9.276;2023-09-19T01:03:33;18.90;99.90
1355;DHT22;671;48.972;9.276;2023-09-19T01:06:00;18.90;99.90
1355;DHT22;671;48.972;9.276;2023-09-19T01:08:29;18.90;99.90
1355;DHT22;671;48.972;9.276;2023-09-19T01:11:00;18.90;99.90
1355;DHT22;671;48.972;9.276;2023-09-19T01:13:46;18.90;99.90
1355;DHT22;671;48.972;9.276;2023-09-19T01:16:28;18.90;99.90
1355;DHT22;671;48.972;9.276;2023-09-19T01:29:48;18.90;99.90
1355;DHT22;671;48.972;9.276;2023-09-19T01:32:19;18.90;99.90
1355;DHT22;671;48.972;9.276;2023-09-19T01:34:49;18.90;99.90
1355;DHT22;671;48.972;9.276;2023-09-19T01:37:17;18.90;99.90
1355;DHT22;671;48.972;9.276;2023-09-19T01:39:47;18.90;99.90
1355;DHT22;671;48.972;9.276;2023-09-19T01:42:21;18.90;99.90
1355;DHT22;671;48.972;9.276;2023-09-19T01:45:00;18.90;99.90
1355;DHT22;671;48.972;9.276;2023-09-19T01:47:48;19.00;99.90
1355;DHT22;671;48.972;9.276;2023-09-19T01:52:57;19.00;99.90
1355;DHT22;671;48.972;9.276;2023-09-19T01:55:28;19.00;99.90
1355;DHT22;671;48.972;9.276;2023-09-19T01:58:06;19.00;99.90
1355;DHT22;671;48.972;9.276;2023-09-19T02:00:36;18.90;99.90
1355;DHT22;671;48.972;9.276;2023-09-19T02:03:04;18.90;99.90
1355;DHT22;671;48.972;9.276;2023-09-19T02:05:30;18.90;99.90
1355;DHT22;671;48.972;9.276;2023-09-19T02:07:57;18.90;99.90
1355;DHT22;671;48.972;9.276;2023-09-19T02:10:25;18.90;99.90
1355;DHT22;671;48.972;9.276;2023-09-19T02:12:51;18.90;99.90
1355;DHT22;671;48.972;9.276;2023-09-19T02:15:18;18.80;99.90
1355;DHT22;671;48.972;9.276;2023-09-19T02:17:45;18.80;99.90
1355;DHT22;671;48.972;9.276;2023-09-19T02:20:12;18.90;99.90
1355;DHT22;671;48.972;9.276;2023-09-19T02:22:42;18.90;99.90
1355;DHT22;671;48.972;9.276;2023-09-19T02:25:08;18.80;99.90
1355;DHT22;671;48.972;9.276;2023-09-19T02:27:35;18.80;99.90
1355;DHT22;671;48.972;9.276;2023-09-19T02:30:03;18.90;99.90
1355;DHT22;671;48.972;9.276;2023-09-19T02:32:30;18.90;99.90
1355;DHT22;671;48.972;9.276;2023-09-19T02:34:57;18.80;99.90
1355;DHT22;671;48.972;9.276;2023-09-19T02:37:25;18.80;99.90
1355;DHT22;671;48.972;9.276;2023-09-19T02:39:51;18.70;99.90
1355;DHT22;671;48.972;9.276;2023-09-19T02:42:18;18.70;99.90
1355;DHT22;671;48.972;9.276;2023-09-19T02:44:44;18.60;99.90
1355;DHT22;671;48.972;9.276;2023-09-19T02:47:13;18.50;99.90
1355;DHT22;671;48.972;9.276;2023-09-19T02:49:41;18.40;99.90
1355;DHT22;671;48.972;9.276;2023-09-19T02:52:09;18.40;99.90
1355;DHT22;671;48.972;9.276;2023-09-19T02:54:37;18.30;99.90
1355;DHT22;671;48.972;9.276;2023-09-19T02:57:04;18.30;99.90
1355;DHT22;671;48.972;9.276;2023-09-19T02:59:32;18.30;99.90
1355;DHT22;671;48.972;9.276;2023-09-19T03:01:59;18.30;99.90
1355;DHT22;671;48.972;9.276;2023-09-19T03:04:26;18.30;99.90
1355;DHT22;671;48.972;9.276;2023-09-19T03:06:54;18.30;99.90
1355;DHT22;671;48.972;9.276;2023-09-19T03:09:24;18.40;99.90
1355;DHT22;671;48.972;9.276;2023-09-19T03:11:51;18.30;99.90
1355;DHT22;671;48.972;9.276;2023-09-19T03:14:18;18.30;99.90
1355;DHT22;671;48.972;9.276;2023-09-19T03:16:46;18.30;99.90
1355;DHT22;671;48.972;9.276;2023-09-19T03:19:12;18.30;99.90
1355;DHT22;671;48.972;9.276;2023-09-19T03:21:41;18.30;99.90
1355;DHT22;671;48.972;9.276;2023-09-19T03:24:07;18.30;99.90
1355;DHT22;671;48.972;9.276;2023-09-19T03:26:34;18.30;99.90
1355;DHT22;671;48.972;9.276;2023-09-19T03:29:04;18.20;99.90
1355;DHT22;671;48.972;9.276;2023-09-19T03:31:34;18.20;99.90
1355;DHT22;671;48.972;9.276;2023-09-19T03:34:03;18.20;99.90
1355;DHT22;671;48.972;9.276;2023-09-19T03:36:30;18.20;99.90
1355;DHT22;671;48.972;9.276;2023-09-19T03:38:57;18.20;99.90
1355;DHT22;671;48.972;9.276;2023-09-19T03:41:23;18.30;99.90
1355;DHT22;671;48.972;9.276;2023-09-19T03:43:49;18.30;99.90
1355;DHT22;671;48.972;9.276;2023-09-19T03:46:16;18.30;99.90
1355;DHT22;671;48.972;9.276;2023-09-19T03:48:43;18.30;99.90
1355;DHT22;671;48.972;9.276;2023-09-19T03:51:09;18.30;99.90
1355;DHT22;671;48.972;9.276;2023-09-19T03:53:37;18.30;99.90
1355;DHT22;671;48.972;9.276;2023-09-19T03:56:03;18.30;99.90
1355;DHT22;671;48.972;9.276;2023-09-19T03:58:30;18.30;99.90
1355;DHT22;671;48.972;9.276;2023-09-19T04:00:56;18.30;99.90
1355;DHT22;671;48.972;9.276;2023-09-19T04:03:24;18.30;99.90
1355;DHT22;671;48.972;9.276;2023-09-19T04:06:01;18.40;99.90
1355;DHT22;671;48.972;9.276;2023-09-19T04:08:28;18.40;99.90
1355;DHT22;671;48.972;9.276;2023-09-19T04:10:55;18.40;99.90
1355;DHT22;671;48.972;9.276;2023-09-19T04:13:23;18.40;99.90
1355;DHT22;671;48.972;9.276;2023-09-19T04:15:49;18.40;99.90
1355;DHT22;671;48.972;9.276;2023-09-19T04:18:16;18.40;99.90
1355;DHT22;671;48.972;9.276;2023-09-19T04:20:51;18.40;99.90
1355;DHT22;671;48.972;9.276;2023-09-19T04:23:17;18.40;99.90
1355;DHT22;671;48.972;9.276;2023-09-19T04:25:46;18.30;99.90
1355;DHT22;671;48.972;9.276;2023-09-19T04:28:12;18.30;99.90
1355;DHT22;671;48.972;9.276;2023-09-19T04:30:39;18.20;99.90
1355;DHT22;671;48.972;9.276;2023-09-19T04:33:07;18.20;99.90
1355;DHT22;671;48.972;9.276;2023-09-19T04:35:34;18.20;99.90
1355;DHT22;671;48.972;9.276;2023-09-19T04:38:01;18.10;99.90
1355;DHT22;671;48.972;9.276;2023-09-19T04:40:29;18.00;99.90
1355;DHT22;671;48.972;9.276;2023-09-19T04:42:56;18.10;99.90
1355;DHT22;671;48.972;9.276;2023-09-19T04:45:24;18.10;99.90
1355;DHT22;671;48.972;9.276;2023-09-19T04:47:50;18.00;99.90
1355;DHT22;671;48.972;9.276;2023-09-19T04:50:17;18.00;99.90
1355;DHT22;671;48.972;9.276;2023-09-19T04:52:44;18.00;99.90
1355;DHT22;671;48.972;9.276;2023-09-19T04:55:14;18.00;99.90
1355;DHT22;671;48.972;9.276;2023-09-19T04:57:44;18.00;99.90
1355;DHT22;671;48.972;9.276;2023-09-19T05:00:13;18.00;99.90
1355;DHT22;671;48.972;9.276;2023-09-19T05:02:41;18.10;99.90
1355;DHT22;671;48.972;9.276;2023-09-19T05:05:09;18.10;99.90
1355;DHT22;671;48.972;9.276;2023-09-19T05:07:38;18.10;99.90
1355;DHT22;671;48.972;9.276;2023-09-19T05:10:06;18.10;99.90
1355;DHT22;671;48.972;9.276;2023-09-19T05:12:36;18.10;99.90
1355;DHT22;671;48.972;9.276;2023-09-19T05:15:03;18.10;99.90
1355;DHT22;671;48.972;9.276;2023-09-19T05:17:30;18.10;99.90
1355;DHT22;671;48.972;9.276;2023-09-19T05:19:57;18.20;99.90
1355;DHT22;671;48.972;9.276;2023-09-19T05:23:00;18.20;99.90
1355;DHT22;671;48.972;9.276;2023-09-19T05:25:30;18.20;99.90
1355;DHT22;671;48.972;9.276;2023-09-19T05:27:58;18.20;99.90
1355;DHT22;671;48.972;9.276;2023-09-19T05:30:28;18.30;99.90
1355;DHT22;671;48.972;9.276;2023-09-19T05:32:55;18.20;99.90
1355;DHT22;671;48.972;9.276;2023-09-19T05:35:23;18.30;99.90
1355;DHT22;671;48.972;9.276;2023-09-19T05:37:51;18.30;99.90
1355;DHT22;671;48.972;9.276;2023-09-19T05:40:18;18.30;99.90
1355;DHT22;671;48.972;9.276;2023-09-19T05:42:45;18.30;99.90
1355;DHT22;671;48.972;9.276;2023-09-19T05:45:13;18.20;99.90
1355;DHT22;671;48.972;9.276;2023-09-19T05:47:40;18.10;99.90
1355;DHT22;671;48.972;9.276;2023-09-19T05:50:09;18.10;99.90
1355;DHT22;671;48.972;9.276;2023-09-19T05:52:37;18.10;99.90
1355;DHT22;671;48.972;9.276;2023-09-19T05:55:07;18.10;99.90
1355;DHT22;671;48.972;9.276;2023-09-19T05:57:34;18.10;99.90
1355;DHT22;671;48.972;9.276;2023-09-19T06:00:01;18.10;99.90
1355;DHT22;671;48.972;9.276;2023-09-19T06:02:27;18.10;99.90
1355;DHT22;671;48.972;9.276;2023-09-19T06:04:56;18.10;99.90
1355;DHT22;671;48.972;9.276;2023-09-19T06:07:23;18.20;99.90
1355;DHT22;671;48.972;9.276;2023-09-19T06:09:52;18.20;99.90
1355;DHT22;671;48.972;9.276;2023-09-19T06:12:22;18.30;99.90
1355;DHT22;671;48.972;9.276;2023-09-19T06:14:48;18.30;99.90
1355;DHT22;671;48.972;9.276;2023-09-19T06:17:15;18.30;99.90
1355;DHT22;671;48.972;9.276;2023-09-19T06:19:43;18.30;99.90
1355;DHT22;671;48.972;9.276;2023-09-19T06:22:15;18.40;99.90
1355;DHT22;671;48.972;9.276;2023-09-19T06:24:45;18.30;99.90
1355;DHT22;671;48.972;9.276;2023-09-19T06:27:13;18.40;99.90
1355;DHT22;671;48.972;9.276;2023-09-19T06:29:39;18.50;99.90
1355;DHT22;671;48.972;9.276;2023-09-19T06:32:09;18.60;99.90
1355;DHT22;671;48.972;9.276;2023-09-19T06:34:37;18.60;99.90
1355;DHT22;671;48.972;9.276;2023-09-19T06:37:05;18.70;99.90
1355;DHT22;671;48.972;9.276;2023-09-19T06:39:32;18.70;99.90
1355;DHT22;671;48.972;9.276;2023-09-19T06:41:59;18.90;99.90
1355;DHT22;671;48.972;9.276;2023-09-19T06:44:27;19.00;99.90
1355;DHT22;671;48.972;9.276;2023-09-19T06:46:56;19.10;99.90
1355;DHT22;671;48.972;9.276;2023-09-19T06:49:22;19.10;99.90
1355;DHT22;671;48.972;9.276;2023-09-19T06:51:49;19.20;99.90
1355;DHT22;671;48.972;9.276;2023-09-19T06:54:15;19.20;99.90
1355;DHT22;671;48.972;9.276;2023-09-19T06:56:44;19.20;99.90
1355;DHT22;671;48.972;9.276;2023-09-19T06:59:10;19.30;99.90
1355;DHT22;671;48.972;9.276;2023-09-19T07:01:40;19.40;99.90
1355;DHT22;671;48.972;9.276;2023-09-19T07:04:07;19.40;99.90
1355;DHT22;671;48.972;9.276;2023-09-19T07:06:34;19.40;99.90
1355;DHT22;671;48.972;9.276;2023-09-19T07:09:01;19.50;99.90
1355;DHT22;671;48.972;9.276;2023-09-19T07:11:27;19.60;99.90
1355;DHT22;671;48.972;9.276;2023-09-19T07:13:57;19.60;99.90
1355;DHT22;671;48.972;9.276;2023-09-19T07:16:24;19.60;99.90
1355;DHT22;671;48.972;9.276;2023-09-19T07:18:56;19.60;99.90
1355;DHT22;671;48.972;9.276;2023-09-19T07:21:23;19.50;99.90
1355;DHT22;671;48.972;9.276;2023-09-19T07:23:50;19.50;99.90
1355;DHT22;671;48.972;9.276;2023-09-19T07:26:17;19.60;99.90
1355;DHT22;671;48.972;9.276;2023-09-19T07:28:43;19.50;99.90
1355;DHT22;671;48.972;9.276;2023-09-19T07:31:10;19.40;99.90
1355;DHT22;671;48.972;9.276;2023-09-19T07:33:36;19.40;99.90
1355;DHT22;671;48.972;9.276;2023-09-19T07:36:03;19.40;99.90
1355;DHT22;671;48.972;9.276;2023-09-19T07:38:30;19.30;99.90
1355;DHT22;671;48.972;9.276;2023-09-19T07:41:00;19.20;99.90
1355;DHT22;671;48.972;9.276;2023-09-19T07:43:28;19.20;99.90
1355;DHT22;671;48.972;9.276;2023-09-19T07:45:55;19.20;99.90
1355;DHT22;671;48.972;9.276;2023-09-19T07:48:21;19.10;99.90
1355;DHT22;671;48.972;9.276;2023-09-19T07:50:47;19.20;99.90
1355;DHT22;671;48.972;9.276;2023-09-19T07:53:14;19.10;99.90
1355;DHT22;671;48.972;9.276;2023-09-19T07:55:43;19.20;99.90
1355;DHT22;671;48.972;9.276;2023-09-19T07:58:10;19.10;99.90
1355;DHT22;671;48.972;9.276;2023-09-19T08:00:36;19.10;99.90
1355;DHT22;671;48.972;9.276;2023-09-19T08:03:03;19.00;99.90
1355;DHT22;671;48.972;9.276;2023-09-19T08:05:30;19.00;99.90
1355;DHT22;671;48.972;9.276;2023-09-19T08:07:57;19.00;99.90
1355;DHT22;671;48.972;9.276;2023-09-19T08:10:23;19.00;99.90
1355;DHT22;671;48.972;9.276;2023-09-19T08:12:53;19.10;99.90
1355;DHT22;671;48.972;9.276;2023-09-19T08:15:24;19.10;99.90
1355;DHT22;671;48.972;9.276;2023-09-19T08:17:50;19.20;99.90
1355;DHT22;671;48.972;9.276;2023-09-19T08:20:17;19.20;99.90
1355;DHT22;671;48.972;9.276;2023-09-19T08:22:52;19.30;99.90
1355;DHT22;671;48.972;9.276;2023-09-19T08:25:21;19.30;99.90
1355;DHT22;671;48.972;9.276;2023-09-19T08:27:49;19.40;99.90
1355;DHT22;671;48.972;9.276;2023-09-19T08:30:17;19.50;99.90
1355;DHT22;671;48.972;9.276;2023-09-19T08:32:58;19.60;99.90
1355;DHT22;671;48.972;9.276;2023-09-19T08:35:25;19.80;99.90
1355;DHT22;671;48.972;9.276;2023-09-19T08:37:51;19.80;99.90
1355;DHT22;671;48.972;9.276;2023-09-19T08:40:18;19.90;99.90
1355;DHT22;671;48.972;9.276;2023-09-19T08:42:55;20.00;99.90
1355;DHT22;671;48.972;9.276;2023-09-19T08:45:22;20.10;99.90
1355;DHT22;671;48.972;9.276;2023-09-19T08:48:03;20.20;99.90
1355;DHT22;671;48.972;9.276;2023-09-19T08:50:39;20.30;99.90
1355;DHT22;671;48.972;9.276;2023-09-19T08:53:11;20.30;99.90
1355;DHT22;671;48.972;9.276;2023-09-19T08:55:43;20.40;99.90
1355;DHT22;671;48.972;9.276;2023-09-19T08:58:14;20.60;99.90
1355;DHT22;671;48.972;9.276;2023-09-19T09:00:48;20.70;99.90
1355;DHT22;671;48.972;9.276;2023-09-19T09:03:16;20.80;99.90
1355;DHT22;671;48.972;9.276;2023-09-19T09:05:46;20.90;99.90
1355;DHT22;671;48.972;9.276;2023-09-19T09:08:14;21.10;99.90
1355;DHT22;671;48.972;9.276;2023-09-19T09:10:41;21.20;99.90
1355;DHT22;671;48.972;9.276;2023-09-19T09:13:10;21.40;99.90
1355;DHT22;671;48.972;9.276;2023-09-19T09:15:41;21.50;99.90
1355;DHT22;671;48.972;9.276;2023-09-19T09:18:07;21.70;99.90
1355;DHT22;671;48.972;9.276;2023-09-19T09:20:34;21.90;99.90
1355;DHT22;671;48.972;9.276;2023-09-19T09:23:00;22.00;99.90
1355;DHT22;671;48.972;9.276;2023-09-19T09:28:22;22.20;99.90
1355;DHT22;671;48.972;9.276;2023-09-19T09:30:49;22.10;99.90
1355;DHT22;671;48.972;9.276;2023-09-19T09:33:17;22.00;99.90
1355;DHT22;671;48.972;9.276;2023-09-19T09:38:24;21.90;99.90
1355;DHT22;671;48.972;9.276;2023-09-19T09:40:55;21.70;99.90
1355;DHT22;671;48.972;9.276;2023-09-19T09:43:37;21.70;99.90
1355;DHT22;671;48.972;9.276;2023-09-19T09:46:18;21.70;99.90
1355;DHT22;671;48.972;9.276;2023-09-19T09:48:55;21.60;99.90
1355;DHT22;671;48.972;9.276;2023-09-19T09:51:41;21.60;99.90
1355;DHT22;671;48.972;9.276;2023-09-19T09:54:13;21.80;99.90
1355;DHT22;671;48.972;9.276;2023-09-19T10:02:15;21.80;99.90
1355;DHT22;671;48.972;9.276;2023-09-19T10:04:47;21.80;99.90
1355;DHT22;671;48.972;9.276;2023-09-19T10:07:32;21.80;99.90
1355;DHT22;671;48.972;9.276;2023-09-19T10:10:02;21.90;99.90
1355;DHT22;671;48.972;9.276;2023-09-19T10:12:44;21.90;99.90
1355;DHT22;671;48.972;9.276;2023-09-19T10:15:18;22.00;99.90
1355;DHT22;671;48.972;9.276;2023-09-19T10:17:52;22.00;99.90
1355;DHT22;671;48.972;9.276;2023-09-19T10:20:23;22.10;99.90
1355;DHT22;671;48.972;9.276;2023-09-19T10:23:06;22.00;99.90
1355;DHT22;671;48.972;9.276;2023-09-19T10:25:40;22.00;99.90
1355;DHT22;671;48.972;9.276;2023-09-19T10:28:10;22.00;99.90
1355;DHT22;671;48.972;9.276;2023-09-19T10:30:42;22.10;99.90
1355;DHT22;671;48.972;9.276;2023-09-19T10:33:12;22.00;99.90
1355;DHT22;671;48.972;9.276;2023-09-19T10:35:45;22.10;99.90
1355;DHT22;671;48.972;9.276;2023-09-19T10:38:14;22.10;99.90
1355;DHT22;671;48.972;9.276;2023-09-19T10:40:41;22.20;99.90
1355;DHT22;671;48.972;9.276;2023-09-19T10:43:15;22.30;99.90
1355;DHT22;671;48.972;9.276;2023-09-19T10:45:45;22.50;99.90
1355;DHT22;671;48.972;9.276;2023-09-19T10:48:13;22.60;99.90
1355;DHT22;671;48.972;9.276;2023-09-19T10:50:43;22.70;99.90
1355;DHT22;671;48.972;9.276;2023-09-19T10:53:12;22.70;99.90
1355;DHT22;671;48.972;9.276;2023-09-19T10:55:39;22.60;99.90
1355;DHT22;671;48.972;9.276;2023-09-19T10:58:06;22.50;99.90
1355;DHT22;671;48.972;9.276;2023-09-19T11:00:59;22.50;99.90
1355;DHT22;671;48.972;9.276;2023-09-19T11:03:35;22.50;99.90
1355;DHT22;671;48.972;9.276;2023-09-19T11:08:56;22.60;99.90
1355;DHT22;671;48.972;9.276;2023-09-19T11:25:46;22.70;99.90
1355;DHT22;671;48.972;9.276;2023-09-19T11:30:48;22.80;99.90
1355;DHT22;671;48.972;9.276;2023-09-19T11:33:26;22.70;99.90
1355;DHT22;671;48.972;9.276;2023-09-19T11:36:10;22.70;99.90
1355;DHT22;671;48.972;9.276;2023-09-19T11:49:19;23.30;99.90
1355;DHT22;671;48.972;9.276;2023-09-19T11:51:52;23.30;99.90
1355;DHT22;671;48.972;9.276;2023-09-19T11:54:20;23.20;99.90
1355;DHT22;671;48.972;9.276;2023-09-19T11:56:58;23.20;99.90
1355;DHT22;671;48.972;9.276;2023-09-19T11:59:30;23.20;99.90
1355;DHT22;671;48.972;9.276;2023-09-19T12:02:06;23.20;99.90
1355;DHT22;671;48.972;9.276;2023-09-19T12:04:36;23.20;99.90
1355;DHT22;671;48.972;9.276;2023-09-19T12:07:08;23.20;99.90
1355;DHT22;671;48.972;9.276;2023-09-19T12:09:47;23.20;99.90
1355;DHT22;671;48.972;9.276;2023-09-19T12:14:50;23.30;99.90
1355;DHT22;671;48.972;9.276;2023-09-19T12:17:17;23.30;99.90
1355;DHT22;671;48.972;9.276;2023-09-19T12:19:52;23.40;99.90
1355;DHT22;671;48.972;9.276;2023-09-19T12:22:19;23.50;99.90
1355;DHT22;671;48.972;9.276;2023-09-19T12:24:47;23.70;99.90
1355;DHT22;671;48.972;9.276;2023-09-19T12:27:14;23.70;99.90
1355;DHT22;671;48.972;9.276;2023-09-19T12:29:47;23.70;99.90
1355;DHT22;671;48.972;9.276;2023-09-19T12:32:36;23.80;99.90
1355;DHT22;671;48.972;9.276;2023-09-19T12:35:07;23.80;99.90
1355;DHT22;671;48.972;9.276;2023-09-19T12:37:43;23.80;99.90
1355;DHT22;671;48.972;9.276;2023-09-19T12:40:14;23.80;99.90
1355;DHT22;671;48.972;9.276;2023-09-19T12:42:44;23.90;99.90
1355;DHT22;671;48.972;9.276;2023-09-19T12:45:11;23.90;99.90
1355;DHT22;671;48.972;9.276;2023-09-19T12:48:20;24.00;99.90
1355;DHT22;671;48.972;9.276;2023-09-19T12:53:26;24.20;99.90
1355;DHT22;671;48.972;9.276;2023-09-19T12:55:59;24.10;99.90
1355;DHT22;671;48.972;9.276;2023-09-19T12:58:26;24.00;99.90
1355;DHT22;671;48.972;9.276;2023-09-19T13:00:52;24.00;99.90
1355;DHT22;671;48.972;9.276;2023-09-19T13:03:29;24.20;99.90
1355;DHT22;671;48.972;9.276;2023-09-19T13:05:59;24.30;99.90
1355;DHT22;671;48.972;9.276;2023-09-19T13:08:31;24.20;99.90
1355;DHT22;671;48.972;9.276;2023-09-19T13:11:09;24.30;99.90
1355;DHT22;671;48.972;9.276;2023-09-19T13:16:16;24.50;99.90
1355;DHT22;671;48.972;9.276;2023-09-19T13:18:49;24.40;99.90
1355;DHT22;671;48.972;9.276;2023-09-19T13:21:30;24.40;99.90
1355;DHT22;671;48.972;9.276;2023-09-19T13:26:46;24.10;99.90
1355;DHT22;671;48.972;9.276;2023-09-19T13:29:12;23.90;99.90
1355;DHT22;671;48.972;9.276;2023-09-19T13:31:40;23.70;99.90
1355;DHT22;671;48.972;9.276;2023-09-19T13:34:08;23.70;99.90
1355;DHT22;671;48.972;9.276;2023-09-19T13:36:34;23.70;99.90
1355;DHT22;671;48.972;9.276;2023-09-19T13:39:00;23.80;99.90
1355;DHT22;671;48.972;9.276;2023-09-19T13:41:27;23.80;99.90
1355;DHT22;671;48.972;9.276;2023-09-19T13:43:55;23.80;99.90
1355;DHT22;671;48.972;9.276;2023-09-19T13:46:23;23.90;99.90
1355;DHT22;671;48.972;9.276;2023-09-19T13:48:52;23.90;99.90
1355;DHT22;671;48.972;9.276;2023-09-19T13:51:21;23.80;99.90
1355;DHT22;671;48.972;9.276;2023-09-19T13:53:51;23.80;99.90
1355;DHT22;671;48.972;9.276;2023-09-19T13:56:18;23.70;99.90
1355;DHT22;671;48.972;9.276;2023-09-19T13:58:44;23.80;99.90
1355;DHT22;671;48.972;9.276;2023-09-19T14:01:11;23.80;99.90
1355;DHT22;671;48.972;9.276;2023-09-19T14:03:39;23.80;99.90
1355;DHT22;671;48.972;9.276;2023-09-19T14:06:06;23.90;99.90
1355;DHT22;671;48.972;9.276;2023-09-19T14:08:33;23.80;99.90
1355;DHT22;671;48.972;9.276;2023-09-19T14:11:08;23.80;99.90
1355;DHT22;671;48.972;9.276;2023-09-19T14:13:35;23.80;99.90
1355;DHT22;671;48.972;9.276;2023-09-19T14:16:05;23.80;99.90
1355;DHT22;671;48.972;9.276;2023-09-19T14:18:32;23.80;99.90
1355;DHT22;671;48.972;9.276;2023-09-19T14:21:03;23.80;99.90
1355;DHT22;671;48.972;9.276;2023-09-19T14:23:37;23.80;99.90
1355;DHT22;671;48.972;9.276;2023-09-19T14:26:05;23.70;99.90
1355;DHT22;671;48.972;9.276;2023-09-19T14:28:32;23.70;99.90
1355;DHT22;671;48.972;9.276;2023-09-19T14:31:06;23.80;99.90
1355;DHT22;671;48.972;9.276;2023-09-19T14:33:34;23.70;99.90
1355;DHT22;671;48.972;9.276;2023-09-19T14:36:07;23.70;99.90
1355;DHT22;671;48.972;9.276;2023-09-19T14:38:36;23.70;99.90
1355;DHT22;671;48.972;9.276;2023-09-19T14:41:05;23.70;99.90
1355;DHT22;671;48.972;9.276;2023-09-19T14:43:32;23.70;99.90
1355;DHT22;671;48.972;9.276;2023-09-19T14:46:20;23.60;99.90
1355;DHT22;671;48.972;9.276;2023-09-19T14:48:45;23.60;99.90
1355;DHT22;671;48.972;9.276;2023-09-19T14:51:14;23.60;99.90
1355;DHT22;671;48.972;9.276;2023-09-19T14:53:41;23.70;99.90
1355;DHT22;671;48.972;9.276;2023-09-19T14:56:08;23.80;99.90
1355;DHT22;671;48.972;9.276;2023-09-19T14:58:35;23.90;99.90
1355;DHT22;671;48.972;9.276;2023-09-19T15:01:09;24.00;99.90
1355;DHT22;671;48.972;9.276;2023-09-19T15:03:40;24.10;99.90
1355;DHT22;671;48.972;9.276;2023-09-19T15:06:09;24.20;99.90
1355;DHT22;671;48.972;9.276;2023-09-19T15:08:37;24.20;99.90
1355;DHT22;671;48.972;9.276;2023-09-19T15:11:07;24.20;99.90
1355;DHT22;671;48.972;9.276;2023-09-19T15:13:35;24.10;99.90
1355;DHT22;671;48.972;9.276;2023-09-19T15:16:03;24.00;99.90
1355;DHT22;671;48.972;9.276;2023-09-19T15:18:30;24.00;99.90
1355;DHT22;671;48.972;9.276;2023-09-19T15:21:00;24.00;99.90
1355;DHT22;671;48.972;9.276;2023-09-19T15:23:26;24.00;99.90
1355;DHT22;671;48.972;9.276;2023-09-19T15:25:55;24.00;99.90
1355;DHT22;671;48.972;9.276;2023-09-19T15:28:22;24.00;99.90
1355;DHT22;671;48.972;9.276;2023-09-19T15:30:59;24.10;99.90
1355;DHT22;671;48.972;9.276;2023-09-19T15:33:25;24.10;99.90
1355;DHT22;671;48.972;9.276;2023-09-19T15:36:11;24.10;99.90
1355;DHT22;671;48.972;9.276;2023-09-19T15:41:36;24.00;99.90
1355;DHT22;671;48.972;9.276;2023-09-19T15:44:04;23.90;99.90
1355;DHT22;671;48.972;9.276;2023-09-19T15:46:32;23.70;99.90
1355;DHT22;671;48.972;9.276;2023-09-19T15:49:02;23.60;99.90
1355;DHT22;671;48.972;9.276;2023-09-19T15:51:29;23.60;99.90
1355;DHT22;671;48.972;9.276;2023-09-19T15:53:57;23.50;99.90
1355;DHT22;671;48.972;9.276;2023-09-19T15:56:25;23.50;99.90
1355;DHT22;671;48.972;9.276;2023-09-19T15:58:55;23.50;99.90
1355;DHT22;671;48.972;9.276;2023-09-19T16:01:23;23.50;99.90
1355;DHT22;671;48.972;9.276;2023-09-19T16:03:51;23.40;99.90
1355;DHT22;671;48.972;9.276;2023-09-19T16:06:21;23.30;99.90
1355;DHT22;671;48.972;9.276;2023-09-19T16:08:51;23.30;99.90
1355;DHT22;671;48.972;9.276;2023-09-19T16:11:18;23.20;99.90
1355;DHT22;671;48.972;9.276;2023-09-19T16:13:48;23.10;99.90
1355;DHT22;671;48.972;9.276;2023-09-19T16:16:15;23.10;99.90
1355;DHT22;671;48.972;9.276;2023-09-19T16:18:50;23.00;99.90
1355;DHT22;671;48.972;9.276;2023-09-19T16:21:18;23.00;99.90
1355;DHT22;671;48.972;9.276;2023-09-19T16:23:47;22.90;99.90
1355;DHT22;671;48.972;9.276;2023-09-19T16:26:13;22.80;99.90
1355;DHT22;671;48.972;9.276;2023-09-19T16:28:41;22.70;99.90
1355;DHT22;671;48.972;9.276;2023-09-19T16:31:08;22.70;99.90
1355;DHT22;671;48.972;9.276;2023-09-19T16:33:40;22.70;99.90
1355;DHT22;671;48.972;9.276;2023-09-19T16:36:08;22.70;99.90
1355;DHT22;671;48.972;9.276;2023-09-19T16:38:36;22.60;99.90
1355;DHT22;671;48.972;9.276;2023-09-19T16:41:04;22.60;99.90
1355;DHT22;671;48.972;9.276;2023-09-19T16:43:31;22.50;99.90
1355;DHT22;671;48.972;9.276;2023-09-19T16:46:01;22.50;99.90
1355;DHT22;671;48.972;9.276;2023-09-19T16:48:28;22.40;99.90
1355;DHT22;671;48.972;9.276;2023-09-19T16:51:03;22.30;99.90
1355;DHT22;671;48.972;9.276;2023-09-19T16:53:33;22.30;99.90
1355;DHT22;671;48.972;9.276;2023-09-19T16:56:03;22.20;99.90
1355;DHT22;671;48.972;9.276;2023-09-19T16:58:30;22.20;99.90
1355;DHT22;671;48.972;9.276;2023-09-19T17:00:59;22.20;99.90
1355;DHT22;671;48.972;9.276;2023-09-19T17:03:26;22.20;99.90
1355;DHT22;671;48.972;9.276;2023-09-19T17:05:59;22.10;99.90
1355;DHT22;671;48.972;9.276;2023-09-19T17:08:26;22.00;99.90
1355;DHT22;671;48.972;9.276;2023-09-19T17:11:06;21.90;99.90
1355;DHT22;671;48.972;9.276;2023-09-19T17:13:36;21.90;99.90
1355;DHT22;671;48.972;9.276;2023-09-19T17:16:07;21.80;99.90
1355;DHT22;671;48.972;9.276;2023-09-19T17:18:35;21.70;99.90
1355;DHT22;671;48.972;9.276;2023-09-19T17:21:03;21.60;99.90
1355;DHT22;671;48.972;9.276;2023-09-19T17:23:31;21.50;99.90
1355;DHT22;671;48.972;9.276;2023-09-19T17:26:12;21.40;99.90
1355;DHT22;671;48.972;9.276;2023-09-19T17:28:47;21.40;99.90
1355;DHT22;671;48.972;9.276;2023-09-19T17:31:19;21.30;99.90
1355;DHT22;671;48.972;9.276;2023-09-19T17:33:48;21.20;99.90
1355;DHT22;671;48.972;9.276;2023-09-19T17:36:24;21.20;99.90
1355;DHT22;671;48.972;9.276;2023-09-19T17:38:53;21.10;99.90
1355;DHT22;671;48.972;9.276;2023-09-19T17:41:20;21.00;99.90